createdAt,value
2023-02-03T00:00:59.597Z,5.50
2023-02-03T00:03:36.759Z,5.23
2023-02-03T00:06:09.297Z,5.00
2023-02-03T00:08:42.421Z,5.34
2023-02-03T00:11:15.141Z,5.27
2023-02-03T00:13:46.897Z,5.64
2023-02-03T00:16:24.383Z,5.64
2023-02-03T00:18:56.559Z,5.50
2023-02-03T00:21:29.088Z,5.45
2023-02-03T00:24:01.102Z,5.31
2023-02-03T00:26:48.600Z,5.38
2023-02-03T00:29:34.378Z,5.37
2023-02-03T00:32:09.630Z,5.40
2023-02-03T00:34:41.737Z,5.50
2023-02-03T00:37:16.218Z,4.91
2023-02-03T00:39:48.120Z,5.13
2023-02-03T00:42:20.619Z,5.10
2023-02-03T00:44:52.292Z,5.05
2023-02-03T00:47:27.339Z,5.12
2023-02-03T00:49:59.417Z,5.37
2023-02-03T00:52:31.718Z,5.25
2023-02-03T00:55:03.500Z,5.04
2023-02-03T00:57:36.322Z,4.86
2023-02-03T01:00:17.978Z,4.91
2023-02-03T01:02:58.071Z,4.89
2023-02-03T01:05:30.064Z,4.88
2023-02-03T01:08:02.223Z,4.91
2023-02-03T01:10:34.275Z,4.89
2023-02-03T01:13:06.627Z,5.34
2023-02-03T01:15:38.701Z,5.20
2023-02-03T01:18:15.553Z,4.86
2023-02-03T01:20:47.412Z,5.07
2023-02-03T01:23:19.356Z,5.50
2023-02-03T01:25:50.896Z,5.28
2023-02-03T01:28:26.136Z,5.36
2023-02-03T01:31:00.821Z,5.30
2023-02-03T01:33:35.975Z,5.00
2023-02-03T01:36:07.506Z,4.67
2023-02-03T01:38:42.083Z,5.13
2023-02-03T01:41:19.567Z,5.28
2023-02-03T01:43:54.081Z,5.01
2023-02-03T01:46:32.081Z,4.76
2023-02-03T01:49:11.878Z,4.96
2023-02-03T01:51:48.565Z,5.00
2023-02-03T01:54:25.918Z,5.07
2023-02-03T01:57:00.587Z,5.23
2023-02-03T01:59:37.334Z,4.95
2023-02-03T02:02:10.551Z,5.09
2023-02-03T02:04:54.377Z,5.02
2023-02-03T02:07:29.337Z,4.84
2023-02-03T02:10:05.068Z,4.83
2023-02-03T02:12:37.038Z,4.59
2023-02-03T02:15:10.667Z,4.46
2023-02-03T02:18:09.539Z,4.48
2023-02-03T02:21:15.586Z,4.65
2023-02-03T02:24:20.342Z,5.00
2023-02-03T02:27:00.664Z,4.73
2023-02-03T02:30:06.348Z,4.49
2023-02-03T02:32:51.972Z,4.82
2023-02-03T02:35:35.627Z,4.61
2023-02-03T02:38:17.987Z,4.59
2023-02-03T02:40:58.683Z,4.56
2023-02-03T02:43:42.951Z,4.43
2023-02-03T02:46:17.940Z,4.28
2023-02-03T02:52:22.336Z,4.24
2023-02-03T02:54:58.685Z,4.20
2023-02-03T02:57:32.450Z,3.97
2023-02-03T03:00:09.656Z,4.16
2023-02-03T03:02:41.617Z,4.02
2023-02-03T03:05:17.068Z,4.36
2023-02-03T03:07:55.327Z,4.37
2023-02-03T03:10:32.774Z,4.38
2023-02-03T03:13:09.590Z,4.44
2023-02-03T03:15:44.347Z,4.25
2023-02-03T03:18:22.666Z,4.34
2023-02-03T03:21:06.253Z,4.20
2023-02-03T03:23:42.718Z,4.19
2023-02-03T03:26:21.273Z,4.28
2023-02-03T03:28:56.846Z,4.36
2023-02-03T03:31:29.328Z,4.45
2023-02-03T03:34:01.127Z,4.35
2023-02-03T03:36:43.574Z,4.25
2023-02-03T03:39:22.911Z,4.47
2023-02-03T03:42:04.395Z,4.18
2023-02-03T03:44:42.928Z,4.30
2023-02-03T03:47:18.206Z,4.31
2023-02-03T03:49:51.678Z,4.63
2023-02-03T03:52:32.480Z,4.78
2023-02-03T03:55:10.255Z,4.59
2023-02-03T03:57:45.781Z,4.85
2023-02-03T04:00:23.568Z,4.76
2023-02-03T04:02:58.540Z,4.54
2023-02-03T04:05:31.864Z,4.25
2023-02-03T04:08:06.138Z,4.51
2023-02-03T04:10:40.192Z,4.75
2023-02-03T04:13:16.116Z,4.59
2023-02-03T04:15:47.624Z,4.83
2023-02-03T04:18:20.741Z,5.13
2023-02-03T04:20:52.749Z,5.15
2023-02-03T04:23:27.896Z,5.51
2023-02-03T04:25:59.553Z,5.37
2023-02-03T04:28:31.625Z,5.63
2023-02-03T04:33:55.116Z,5.28
2023-02-03T04:36:30.558Z,5.38
2023-02-03T04:39:05.533Z,5.57
2023-02-03T04:41:37.471Z,5.72
2023-02-03T04:44:09.652Z,5.67
2023-02-03T04:46:41.462Z,5.82
2023-02-03T04:49:14.416Z,5.76
2023-02-03T04:51:46.426Z,5.95
2023-02-03T04:54:21.521Z,5.97
2023-02-03T04:56:53.637Z,5.96
2023-02-03T04:59:28.287Z,5.92
2023-02-03T05:02:00.207Z,5.88
2023-02-03T05:04:32.284Z,6.15
2023-02-03T05:07:04.508Z,6.32
2023-02-03T05:09:39.504Z,6.14
2023-02-03T05:12:11.550Z,5.96
2023-02-03T05:14:43.684Z,6.33
2023-02-03T05:17:15.645Z,6.30
2023-02-03T05:19:47.904Z,6.29
2023-02-03T05:22:20.184Z,6.61
2023-02-03T05:24:55.345Z,6.69
2023-02-03T05:27:27.443Z,6.39
2023-02-03T05:29:59.794Z,6.68
2023-02-03T05:32:32.487Z,6.83
2023-02-03T05:35:05.520Z,7.00
2023-02-03T05:37:39.217Z,6.83
2023-02-03T05:40:28.748Z,6.87
2023-02-03T05:43:01.058Z,7.21
2023-02-03T05:45:33.842Z,7.42
2023-02-03T05:48:07.800Z,7.38
2023-02-03T05:50:55.744Z,7.56
2023-02-03T05:53:29.736Z,7.52
2023-02-03T05:56:05.664Z,7.57
2023-02-03T05:58:38.805Z,7.74
2023-02-03T06:01:13.284Z,7.58
2023-02-03T06:03:48.245Z,7.60
2023-02-03T06:06:21.863Z,7.53
2023-02-03T06:08:57.476Z,7.24
2023-02-03T06:11:34.331Z,7.41
2023-02-03T06:14:07.945Z,7.22
2023-02-03T06:16:41.391Z,7.59
2023-02-03T06:19:16.355Z,7.97
2023-02-03T06:21:49.604Z,8.08
2023-02-03T06:24:22.533Z,8.05
2023-02-03T06:26:58.273Z,8.08
2023-02-03T06:29:30.555Z,8.16
2023-02-03T06:32:03.249Z,7.92
2023-02-03T06:34:36.126Z,7.71
2023-02-03T06:37:09.024Z,7.55
2023-02-03T06:39:41.565Z,8.01
2023-02-03T06:42:16.996Z,8.07
2023-02-03T06:44:48.975Z,7.90
2023-02-03T06:47:21.556Z,7.96
2023-02-03T06:49:53.747Z,8.11
2023-02-03T06:52:38.038Z,7.89
2023-02-03T06:55:11.639Z,7.91
2023-02-03T06:57:51.105Z,8.11
2023-02-03T07:00:24.709Z,8.37
2023-02-03T07:02:58.418Z,8.38
2023-02-03T07:05:31.359Z,8.03
2023-02-03T07:08:03.603Z,7.97
2023-02-03T07:10:35.470Z,8.02
2023-02-03T07:13:10.814Z,8.07
2023-02-03T07:15:42.820Z,8.54
2023-02-03T07:18:36.010Z,8.41
2023-02-03T07:21:11.468Z,8.60
2023-02-03T07:23:44.516Z,8.42
2023-02-03T07:26:16.545Z,7.89
2023-02-03T07:28:53.252Z,7.77
2023-02-03T07:31:25.281Z,7.75
2023-02-03T07:34:07.876Z,8.03
2023-02-03T07:36:40.202Z,7.93
2023-02-03T07:39:31.316Z,8.15
2023-02-03T07:42:06.455Z,7.97
2023-02-03T07:44:42.736Z,7.83
2023-02-03T07:47:15.592Z,8.06
2023-02-03T07:49:48.535Z,7.92
2023-02-03T07:52:22.099Z,7.91
2023-02-03T07:54:55.417Z,8.33
2023-02-03T07:57:27.704Z,7.77
2023-02-03T08:00:22.893Z,8.00
2023-02-03T08:02:55.532Z,7.92
2023-02-03T08:05:28.795Z,7.82
2023-02-03T08:08:01.522Z,8.08
2023-02-03T08:10:34.064Z,8.18
2023-02-03T08:13:07.549Z,8.06
2023-02-03T08:15:42.981Z,7.82
2023-02-03T08:18:36.945Z,8.24
2023-02-03T08:21:09.897Z,8.23
2023-02-03T08:23:42.919Z,8.20
2023-02-03T08:26:15.441Z,8.47
2023-02-03T08:28:51.443Z,8.30
2023-02-03T08:31:27.455Z,7.81
2023-02-03T08:33:59.665Z,7.85
2023-02-03T08:36:34.213Z,7.96
2023-02-03T08:39:06.806Z,7.87
2023-02-03T08:41:39.140Z,7.92
2023-02-03T08:44:11.607Z,8.23
2023-02-03T08:46:46.947Z,8.06
2023-02-03T08:49:19.468Z,7.91
2023-02-03T08:51:53.165Z,8.01
2023-02-03T08:54:25.627Z,7.71
2023-02-03T08:56:59.307Z,7.94
2023-02-03T08:59:32.808Z,8.09
2023-02-03T09:02:10.349Z,7.91
2023-02-03T09:04:43.432Z,8.03
2023-02-03T09:07:17.467Z,7.97
2023-02-03T09:09:50.431Z,7.89
2023-02-03T09:12:23.906Z,7.75
2023-02-03T09:14:56.457Z,7.64
2023-02-03T09:17:32.040Z,7.74
2023-02-03T09:20:04.632Z,7.76
2023-02-03T09:22:37.413Z,8.37
2023-02-03T09:25:10.830Z,8.38
2023-02-03T09:27:57.538Z,8.00
2023-02-03T09:30:30.084Z,7.71
2023-02-03T09:33:05.386Z,7.81
2023-02-03T09:35:37.762Z,7.61
2023-02-03T09:38:10.493Z,8.04
2023-02-03T09:40:43.479Z,7.72
2023-02-03T09:43:34.353Z,7.73
2023-02-03T09:46:10.543Z,7.51
2023-02-03T09:48:53.303Z,7.38
2023-02-03T09:51:30.436Z,7.54
2023-02-03T09:54:08.657Z,7.25
2023-02-03T09:56:50.446Z,7.31
2023-02-03T09:59:23.408Z,7.45
2023-02-03T10:02:02.067Z,7.58
2023-02-03T10:04:42.752Z,7.49
2023-02-03T10:07:25.705Z,7.50
2023-02-03T10:10:07.575Z,7.49
2023-02-03T10:13:07.659Z,7.42
2023-02-03T10:15:57.359Z,7.67
2023-02-03T10:18:35.110Z,7.76
2023-02-03T10:21:20.390Z,7.80
2023-02-03T10:23:55.526Z,7.93
2023-02-03T10:26:31.065Z,7.68
2023-02-03T10:29:11.486Z,7.63
2023-02-03T10:31:47.977Z,8.01
2023-02-03T10:34:23.507Z,7.98
2023-02-03T10:37:06.820Z,7.77
2023-02-03T10:39:44.732Z,7.97
2023-02-03T10:42:18.074Z,7.96
2023-02-03T10:44:57.398Z,8.40
2023-02-03T10:47:36.812Z,8.56
2023-02-03T10:50:11.467Z,8.35
2023-02-03T10:52:47.107Z,7.48
2023-02-03T10:55:37.384Z,7.17
2023-02-03T10:58:19.762Z,7.16
2023-02-03T11:01:21.740Z,7.50
2023-02-03T11:04:03.601Z,7.84
2023-02-03T11:06:58.482Z,7.83
2023-02-03T11:09:37.943Z,7.72
2023-02-03T11:12:15.791Z,7.60
2023-02-03T11:14:50.642Z,7.72
2023-02-03T11:17:27.399Z,7.70
2023-02-03T11:20:10.800Z,7.67
2023-02-03T11:22:45.542Z,7.70
2023-02-03T11:25:30.105Z,7.18
2023-02-03T11:28:09.760Z,7.21
2023-02-03T11:30:42.489Z,7.49
2023-02-03T11:33:22.842Z,7.63
2023-02-03T11:36:01.390Z,7.61
2023-02-03T11:38:37.041Z,7.76
2023-02-03T11:41:21.047Z,8.07
2023-02-03T11:43:59.647Z,8.06
2023-02-03T11:46:32.586Z,7.75
2023-02-03T11:49:14.947Z,7.94
2023-02-03T11:51:59.376Z,7.74
2023-02-03T11:54:41.762Z,7.41
2023-02-03T11:57:39.242Z,7.98
2023-02-03T12:00:31.491Z,7.95
2023-02-03T12:03:32.622Z,8.18
2023-02-03T12:06:28.591Z,8.49
2023-02-03T12:09:21.403Z,7.38
2023-02-03T12:12:10.601Z,7.96
2023-02-03T12:14:54.707Z,8.43
2023-02-03T12:17:50.299Z,8.12
2023-02-03T12:20:33.357Z,8.04
2023-02-03T12:23:18.261Z,8.48
2023-02-03T12:26:03.072Z,8.74
2023-02-03T12:28:49.281Z,8.93
2023-02-03T12:31:32.308Z,8.37
2023-02-03T12:34:21.361Z,8.42
2023-02-03T12:37:08.585Z,8.23
2023-02-03T12:39:48.137Z,8.24
2023-02-03T12:42:31.841Z,8.46
2023-02-03T12:45:09.340Z,8.90
2023-02-03T12:47:50.847Z,8.54
2023-02-03T12:50:27.510Z,8.42
2023-02-03T12:53:06.399Z,8.33
2023-02-03T12:55:40.911Z,8.41
2023-02-03T12:58:22.149Z,8.52
2023-02-03T13:01:00.025Z,7.84
2023-02-03T13:03:40.293Z,7.09
2023-02-03T13:06:19.960Z,6.63
2023-02-03T13:08:59.999Z,6.06
2023-02-03T13:11:37.482Z,5.97
2023-02-03T13:14:19.082Z,6.06
2023-02-03T13:16:57.257Z,6.02
2023-02-03T13:19:42.160Z,5.87
2023-02-03T13:22:16.117Z,6.25
2023-02-03T13:25:04.741Z,6.43
2023-02-03T13:27:53.423Z,6.13
2023-02-03T13:30:56.844Z,5.89
2023-02-03T13:33:52.430Z,5.42
2023-02-03T13:36:56.726Z,5.45
2023-02-03T13:39:44.936Z,5.70
2023-02-03T13:42:30.077Z,5.88
2023-02-03T13:45:10.011Z,6.39
2023-02-03T13:47:44.364Z,6.17
2023-02-03T13:50:24.177Z,6.06
2023-02-03T13:53:04.271Z,6.12
2023-02-03T13:55:41.868Z,6.28
2023-02-03T13:58:25.294Z,6.20
2023-02-03T14:01:26.036Z,6.01
2023-02-03T14:03:59.258Z,6.06
2023-02-03T14:07:02.018Z,6.21
2023-02-03T14:09:45.372Z,6.32
2023-02-03T14:12:37.387Z,6.17
2023-02-03T14:15:36.891Z,6.19
2023-02-03T14:18:37.248Z,6.03
2023-02-03T14:21:17.448Z,6.09
2023-02-03T14:24:00.490Z,6.41
2023-02-03T14:26:43.108Z,6.68
2023-02-03T14:29:29.909Z,6.82
2023-02-03T14:32:04.777Z,6.67
2023-02-03T14:34:39.172Z,6.56
2023-02-03T14:37:34.149Z,6.60
2023-02-03T14:40:35.107Z,6.98
2023-02-03T14:43:38.403Z,6.88
2023-02-03T14:46:44.672Z,7.02
2023-02-03T14:49:38.589Z,6.73
2023-02-03T14:52:37.467Z,7.04
2023-02-03T14:55:28.869Z,6.86
2023-02-03T14:58:06.255Z,7.18
2023-02-03T15:00:41.669Z,7.09
2023-02-03T15:03:30.500Z,7.18
2023-02-03T15:06:05.919Z,7.06
2023-02-03T15:08:44.731Z,6.89
2023-02-03T15:11:36.229Z,7.01
2023-02-03T15:14:27.803Z,7.30
2023-02-03T15:17:05.087Z,7.24
2023-02-03T15:19:41.516Z,7.04
2023-02-03T15:22:28.173Z,7.01
2023-02-03T15:25:04.674Z,7.31
2023-02-03T15:27:37.375Z,6.80
2023-02-03T15:30:29.773Z,6.87
2023-02-03T15:33:09.872Z,6.79
2023-02-03T15:35:45.330Z,6.90
2023-02-03T15:38:23.372Z,6.80
2023-02-03T15:40:59.366Z,6.84
2023-02-03T15:43:39.650Z,7.00
2023-02-03T15:46:19.602Z,6.68
2023-02-03T15:48:59.695Z,6.99
2023-02-03T15:51:37.048Z,7.05
2023-02-03T15:54:17.161Z,7.08
2023-02-03T15:56:56.969Z,7.22
2023-02-03T15:59:35.043Z,7.26
2023-02-03T16:02:20.921Z,7.29
2023-02-03T16:04:57.371Z,7.33
2023-02-03T16:07:32.396Z,7.17
2023-02-03T16:10:05.079Z,6.83
2023-02-03T16:12:37.857Z,6.91
2023-02-03T16:15:25.233Z,6.67
2023-02-03T16:18:00.772Z,6.94
2023-02-03T16:20:53.033Z,6.97
2023-02-03T16:23:28.231Z,6.77
2023-02-03T16:26:21.276Z,6.81
2023-02-03T16:29:27.084Z,6.79
2023-02-03T16:32:12.944Z,7.07
2023-02-03T16:34:57.775Z,7.19
2023-02-03T16:37:46.836Z,7.17
2023-02-03T16:40:35.522Z,7.04
2023-02-03T16:43:27.154Z,6.53
2023-02-03T16:46:13.216Z,6.58
2023-02-03T16:48:57.975Z,6.96
2023-02-03T16:51:39.317Z,6.93
2023-02-03T16:54:18.757Z,7.00
2023-02-03T16:56:52.452Z,7.17
2023-02-03T16:59:25.136Z,6.63
2023-02-03T17:01:57.420Z,6.78
2023-02-03T17:04:30.152Z,6.92
2023-02-03T17:07:05.460Z,6.47
2023-02-03T17:09:40.915Z,6.75
2023-02-03T17:12:12.890Z,6.95
2023-02-03T17:14:45.216Z,7.03
2023-02-03T17:17:16.871Z,7.16
2023-02-03T17:20:06.562Z,7.02
2023-02-03T17:22:38.549Z,6.90
2023-02-03T17:25:13.675Z,6.94
2023-02-03T17:27:45.648Z,7.34
2023-02-03T17:30:18.885Z,6.81
2023-02-03T17:32:50.590Z,6.98
2023-02-03T17:35:22.987Z,7.30
2023-02-03T17:37:54.971Z,7.29
2023-02-03T17:54:20.002Z,6.49
2023-02-03T17:56:55.513Z,7.02
2023-02-03T17:59:48.626Z,7.03
2023-02-03T18:02:25.528Z,7.07
2023-02-03T18:05:14.775Z,7.27
2023-02-03T18:07:49.711Z,7.37
2023-02-03T18:10:22.052Z,7.24
2023-02-03T18:12:56.962Z,7.22
2023-02-03T18:15:28.784Z,7.17
2023-02-03T18:18:00.843Z,7.23
2023-02-03T18:20:32.883Z,6.70
2023-02-03T18:23:05.052Z,6.96
2023-02-03T18:25:38.596Z,7.09
2023-02-03T18:28:13.852Z,6.96
2023-02-03T18:30:45.989Z,7.23
2023-02-03T18:33:18.783Z,6.98
2023-02-03T18:35:50.569Z,6.94
2023-02-03T18:38:22.923Z,7.40
2023-02-03T18:41:07.267Z,7.16
2023-02-03T18:43:44.567Z,6.96
2023-02-03T18:46:19.851Z,7.00
2023-02-03T18:48:51.677Z,7.07
2023-02-03T18:51:24.831Z,7.44
2023-02-03T18:54:09.892Z,7.59
2023-02-03T18:56:50.993Z,7.41
2023-02-03T18:59:26.481Z,7.48
2023-02-03T19:01:58.582Z,6.95
2023-02-03T19:04:30.981Z,7.27
2023-02-03T19:07:02.908Z,7.38
2023-02-03T19:09:49.853Z,7.22
2023-02-03T19:12:22.323Z,6.88
2023-02-03T19:14:57.441Z,6.76
2023-02-03T19:17:29.578Z,7.13
2023-02-03T19:20:03.342Z,6.95
2023-02-03T19:22:36.544Z,7.45
2023-02-03T19:25:09.624Z,7.47
2023-02-03T19:27:41.822Z,7.16
2023-02-03T19:30:17.959Z,7.42
2023-02-03T19:32:49.545Z,7.24
2023-02-03T19:35:21.841Z,6.93
2023-02-03T19:37:54.262Z,7.18
2023-02-03T19:40:26.355Z,6.99
2023-02-03T19:42:59.374Z,6.91
2023-02-03T19:45:34.142Z,6.94
2023-02-03T19:48:07.747Z,7.08
2023-02-03T19:50:41.368Z,6.63
2023-02-03T19:53:13.133Z,6.72
2023-02-03T19:55:46.962Z,6.73
2023-02-03T19:58:21.076Z,6.79
2023-02-03T20:00:56.852Z,6.98
2023-02-03T20:03:28.625Z,6.81
2023-02-03T20:06:01.821Z,6.91
2023-02-03T20:08:34.221Z,7.21
2023-02-03T20:14:04.036Z,6.76
2023-02-03T20:16:38.894Z,6.91
2023-02-03T20:19:11.789Z,6.98
2023-02-03T20:21:43.556Z,6.99
2023-02-03T20:24:17.745Z,6.72
2023-02-03T20:26:53.832Z,6.71
2023-02-03T20:29:26.232Z,7.01
2023-02-03T20:32:01.908Z,6.71
2023-02-03T20:34:34.122Z,7.00
2023-02-03T20:37:08.224Z,6.61
2023-02-03T20:39:40.236Z,6.80
2023-02-03T20:42:18.786Z,6.57
2023-02-03T20:44:51.492Z,6.20
2023-02-03T20:47:26.899Z,6.32
2023-02-03T20:49:59.696Z,6.53
2023-02-03T20:52:34.092Z,6.13
2023-02-03T20:55:14.602Z,6.48
2023-02-03T20:57:48.892Z,6.55
2023-02-03T21:00:23.678Z,5.90
2023-02-03T21:03:11.046Z,6.14
2023-02-03T21:05:45.635Z,6.08
2023-02-03T21:08:25.882Z,6.24
2023-02-03T21:10:58.254Z,6.19
2023-02-03T21:13:36.865Z,6.08
2023-02-03T21:16:18.353Z,5.76
2023-02-03T21:18:57.267Z,5.46
2023-02-03T21:21:33.184Z,4.99
2023-02-03T21:24:23.145Z,4.56
2023-02-03T21:26:56.146Z,4.36
2023-02-03T21:29:31.698Z,4.11
2023-02-03T21:32:03.991Z,4.32
2023-02-03T21:34:39.528Z,4.40
2023-02-03T21:37:30.611Z,4.24
2023-02-03T21:40:01.918Z,4.23
2023-02-03T21:42:46.671Z,4.28
2023-02-03T21:45:44.774Z,3.85
2023-02-03T21:48:40.379Z,4.02
2023-02-03T21:51:21.302Z,3.94
2023-02-03T21:53:58.299Z,4.00
2023-02-03T21:56:32.340Z,3.86
2023-02-03T21:59:05.241Z,3.69
2023-02-03T22:01:40.679Z,3.81
2023-02-03T22:04:12.401Z,3.89
2023-02-03T22:06:50.904Z,3.71
2023-02-03T22:09:25.070Z,3.78
2023-02-03T22:11:57.182Z,3.69
2023-02-03T22:14:29.040Z,3.65
2023-02-03T22:17:01.301Z,3.61
2023-02-03T22:19:33.099Z,3.54
2023-02-03T22:22:08.139Z,3.56
2023-02-03T22:24:40.068Z,3.38
2023-02-03T22:27:12.300Z,3.61
2023-02-03T22:29:44.080Z,3.36
2023-02-03T22:32:16.338Z,3.45
2023-02-03T22:34:48.651Z,3.44
2023-02-03T22:37:29.179Z,3.63
2023-02-03T22:40:00.999Z,3.65
2023-02-03T22:42:33.218Z,3.28
2023-02-03T22:45:05.025Z,3.36
2023-02-03T22:47:37.383Z,3.14
2023-02-03T22:50:11.720Z,3.43
2023-02-03T22:52:46.619Z,3.62
2023-02-03T22:55:18.168Z,3.50
2023-02-03T22:57:50.380Z,3.42
2023-02-03T23:00:24.468Z,3.81
2023-02-03T23:02:56.851Z,3.89
2023-02-03T23:05:29.266Z,3.42
2023-02-03T23:08:04.443Z,3.64
2023-02-03T23:10:36.193Z,3.89
2023-02-03T23:13:08.653Z,3.64
2023-02-03T23:15:40.501Z,3.41
2023-02-03T23:18:12.614Z,3.64
2023-02-03T23:20:44.489Z,3.49
2023-02-03T23:23:19.427Z,3.35
2023-02-03T23:25:51.251Z,3.12
2023-02-03T23:28:23.706Z,3.12
2023-02-03T23:30:56.475Z,3.02
2023-02-03T23:33:28.753Z,3.52
2023-02-03T23:35:57.830Z,3.62
2023-02-03T23:41:37.082Z,3.77
2023-02-03T23:44:09.708Z,3.66
2023-02-03T23:46:41.595Z,3.55
2023-02-03T23:52:06.898Z,3.60
2023-02-03T23:54:43.774Z,3.51
2023-02-03T23:57:16.910Z,3.55
2023-02-03T23:59:49.031Z,3.61
